Time;durP1;ratioP1;P1;durP2;ratioP2;P2;SDS_P1;SDS_P2;PMS_P1;PMS_P2;Temp;Humidity;BMP_temperature;BMP_pressure;BME280_temperature;BME280_humidity;BME280_pressure;Samples;Min_cycle;Max_cycle;Signal;HPM_P1;HPM_P2
2022/05/17 00:00:23;;;;;;;2.65;1.40;;;;;;;;;;7387395;19;20016;-77
2022/05/17 00:02:48;;;;;;;3.50;1.20;;;;;;;;;;7389840;19;20022;-78
2022/05/17 00:05:14;;;;;;;1.95;1.17;;;;;;;;;;7390019;19;20249;-77
2022/05/17 00:07:39;;;;;;;2.95;1.40;;;;;;;;;;7389183;19;20078;-77
2022/05/17 00:10:06;;;;;;;2.20;1.20;;;;;;;;;;7388290;19;20382;-78
2022/05/17 00:12:32;;;;;;;2.90;1.35;;;;;;;;;;7386374;19;20014;-78
2022/05/17 00:14:57;;;;;;;2.15;1.40;;;;;;;;;;7389606;19;20442;-78
2022/05/17 00:17:23;;;;;;;2.55;1.42;;;;;;;;;;7388165;19;20010;-78
2022/05/17 00:19:48;;;;;;;4.47;1.60;;;;;;;;;;7387715;19;20018;-77
2022/05/17 00:22:14;;;;;;;3.75;1.50;;;;;;;;;;7387918;19;20003;-78
2022/05/17 00:24:39;;;;;;;1.70;1.17;;;;;;;;;;7391057;19;20039;-77
2022/05/17 00:27:05;;;;;;;2.95;1.50;;;;;;;;;;7387082;19;20010;-77
2022/05/17 00:29:30;;;;;;;1.52;1.17;;;;;;;;;;7389512;19;20029;-77
2022/05/17 00:31:55;;;;;;;3.33;1.88;;;;;;;;;;7388285;19;20107;-77
2022/05/17 00:34:23;;;;;;;3.28;1.40;;;;;;;;;;7397202;19;20018;-78
2022/05/17 00:36:48;;;;;;;3.72;1.30;;;;;;;;;;7392617;19;20007;-78
2022/05/17 00:39:13;;;;;;;3.28;1.20;;;;;;;;;;7391226;19;20374;-77
2022/05/17 00:41:39;;;;;;;3.38;1.55;;;;;;;;;;7389131;19;20002;-77
2022/05/17 00:46:56;;;;;;;3.45;1.40;;;;;;;;;;7398025;19;20049;-78
2022/05/17 00:49:29;;;;;;;1.58;1.10;;;;;;;;;;7395567;19;20380;-78
2022/05/17 00:51:58;;;;;;;3.55;2.00;;;;;;;;;;7395891;19;20010;-78
2022/05/17 00:54:24;;;;;;;3.95;1.38;;;;;;;;;;7394835;19;20466;-77
2022/05/17 00:56:58;;;;;;;2.92;1.42;;;;;;;;;;7393436;19;20034;-77
2022/05/17 00:59:24;;;;;;;4.20;1.50;;;;;;;;;;7399639;19;20010;-80
2022/05/17 01:01:50;;;;;;;3.05;1.30;;;;;;;;;;7392627;19;20078;-79
2022/05/17 01:04:20;;;;;;;2.10;1.30;;;;;;;;;;7395222;19;20006;-77
2022/05/17 01:06:57;;;;;;;3.47;1.45;;;;;;;;;;7392625;19;20076;-77
2022/05/17 01:09:23;;;;;;;3.20;1.60;;;;;;;;;;7396717;19;20014;-80
2022/05/17 01:11:48;;;;;;;2.72;1.40;;;;;;;;;;7394417;19;20067;-80
2022/05/17 01:16:58;;;;;;;4.90;1.75;;;;;;;;;;7397007;19;20040;-79
2022/05/17 01:19:24;;;;;;;2.08;1.40;;;;;;;;;;7395024;19;20003;-78
2022/05/17 01:21:50;;;;;;;5.90;1.50;;;;;;;;;;7396610;19;20067;-77
2022/05/17 01:24:15;;;;;;;1.67;1.30;;;;;;;;;;7399170;19;19998;-78
2022/05/17 01:26:43;;;;;;;0.98;0.90;;;;;;;;;;7397666;19;20035;-77
2022/05/17 01:29:12;;;;;;;2.65;1.30;;;;;;;;;;7396154;19;20046;-78
2022/05/17 01:31:38;;;;;;;1.80;1.15;;;;;;;;;;7394715;19;20526;-78
2022/05/17 01:34:13;;;;;;;2.88;1.20;;;;;;;;;;7390498;19;20006;-77
2022/05/17 01:36:39;;;;;;;4.03;1.23;;;;;;;;;;7395767;19;20078;-78
2022/05/17 01:39:05;;;;;;;4.43;1.67;;;;;;;;;;7393653;19;20010;-77
2022/05/17 01:41:31;;;;;;;3.70;1.58;;;;;;;;;;7394821;19;20441;-78
2022/05/17 01:43:56;;;;;;;2.40;1.48;;;;;;;;;;7393805;19;20010;-79
2022/05/17 01:46:21;;;;;;;7.15;1.80;;;;;;;;;;7398397;19;20003;-78
2022/05/17 01:48:47;;;;;;;3.47;1.60;;;;;;;;;;7394688;19;20346;-78
2022/05/17 01:51:12;;;;;;;2.03;1.33;;;;;;;;;;7394098;19;20018;-77
2022/05/17 01:53:38;;;;;;;1.63;1.30;;;;;;;;;;7396259;19;19999;-80
2022/05/17 01:56:05;;;;;;;2.65;1.60;;;;;;;;;;7395179;19;20454;-78
2022/05/17 01:58:32;;;;;;;7.00;1.77;;;;;;;;;;7395046;19;20477;-77
2022/05/17 02:00:57;;;;;;;2.50;1.77;;;;;;;;;;7394732;19;20009;-78
2022/05/17 02:03:23;;;;;;;2.90;1.30;;;;;;;;;;7390445;19;20011;-79
2022/05/17 02:05:49;;;;;;;4.55;2.17;;;;;;;;;;7398003;19;20458;-77
2022/05/17 02:08:14;;;;;;;3.28;1.70;;;;;;;;;;7395955;19;20011;-78
2022/05/17 02:10:40;;;;;;;5.45;1.60;;;;;;;;;;7393362;19;20329;-77
2022/05/17 02:13:05;;;;;;;3.58;1.83;;;;;;;;;;7396977;19;20014;-78
2022/05/17 02:15:30;;;;;;;2.50;1.60;;;;;;;;;;7397774;19;20097;-78
2022/05/17 02:17:56;;;;;;;4.50;1.45;;;;;;;;;;7396886;19;20021;-77
2022/05/17 02:20:22;;;;;;;5.40;1.83;;;;;;;;;;7395106;19;20017;-77
2022/05/17 02:22:47;;;;;;;2.38;1.70;;;;;;;;;;7393025;19;20011;-77
2022/05/17 02:25:12;;;;;;;7.15;1.92;;;;;;;;;;7397967;19;20006;-76
2022/05/17 02:27:38;;;;;;;2.30;1.33;;;;;;;;;;7396398;19;20014;-78
2022/05/17 02:30:06;;;;;;;3.75;1.67;;;;;;;;;;7394299;19;20015;-77
2022/05/17 02:32:31;;;;;;;2.72;1.88;;;;;;;;;;7395945;19;20014;-78
2022/05/17 02:34:57;;;;;;;6.57;1.65;;;;;;;;;;7393080;19;20007;-77
2022/05/17 02:37:22;;;;;;;3.10;1.48;;;;;;;;;;7398790;19;20497;-78
2022/05/17 02:39:47;;;;;;;3.47;1.50;;;;;;;;;;7394927;19;20013;-78
2022/05/17 02:42:13;;;;;;;6.53;1.80;;;;;;;;;;7394474;19;20011;-79
2022/05/17 02:44:38;;;;;;;3.38;1.52;;;;;;;;;;7394063;19;20006;-77
2022/05/17 02:47:05;;;;;;;3.20;1.55;;;;;;;;;;7394415;19;20006;-77
2022/05/17 02:49:30;;;;;;;4.80;1.40;;;;;;;;;;7390571;19;20355;-77
2022/05/17 02:51:59;;;;;;;3.25;1.70;;;;;;;;;;7389622;19;20006;-79
2022/05/17 02:54:24;;;;;;;2.42;1.60;;;;;;;;;;7393392;19;20017;-77
2022/05/17 02:56:49;;;;;;;3.05;1.70;;;;;;;;;;7392237;19;20007;-76
2022/05/17 02:59:19;;;;;;;1.40;1.13;;;;;;;;;;7394444;19;20022;-77
2022/05/17 03:01:45;;;;;;;1.20;1.10;;;;;;;;;;7392109;19;20438;-77
2022/05/17 03:04:12;;;;;;;1.85;1.30;;;;;;;;;;7391565;19;20026;-77
2022/05/17 03:06:38;;;;;;;8.07;2.10;;;;;;;;;;7391963;19;20031;-77
2022/05/17 03:09:03;;;;;;;5.68;1.70;;;;;;;;;;7386747;19;20010;-79
2022/05/17 03:11:28;;;;;;;5.25;2.38;;;;;;;;;;7386714;19;20002;-77
2022/05/17 03:13:54;;;;;;;3.70;1.80;;;;;;;;;;7387808;19;20519;-77
2022/05/17 03:16:19;;;;;;;2.58;1.45;;;;;;;;;;7393865;19;20010;-77
2022/05/17 03:18:44;;;;;;;4.30;1.10;;;;;;;;;;7392123;19;20014;-77
2022/05/17 03:21:10;;;;;;;2.75;1.67;;;;;;;;;;7389149;19;20015;-77
2022/05/17 03:23:35;;;;;;;2.00;1.25;;;;;;;;;;7392015;19;20082;-77
2022/05/17 03:26:01;;;;;;;3.00;1.95;;;;;;;;;;7394463;19;20006;-77
2022/05/17 03:28:26;;;;;;;2.95;1.67;;;;;;;;;;7391078;19;20010;-79
2022/05/17 03:30:52;;;;;;;5.22;1.83;;;;;;;;;;7390950;19;20023;-78
2022/05/17 03:33:17;;;;;;;3.65;1.85;;;;;;;;;;7390621;19;20006;-77
2022/05/17 03:35:43;;;;;;;2.03;1.50;;;;;;;;;;7386405;19;20652;-77
2022/05/17 03:38:08;;;;;;;4.65;1.75;;;;;;;;;;7389486;19;20029;-77
2022/05/17 03:40:33;;;;;;;6.55;1.83;;;;;;;;;;7388089;19;20386;-77
2022/05/17 03:42:59;;;;;;;3.63;1.90;;;;;;;;;;7391030;19;20473;-77
2022/05/17 03:45:24;;;;;;;3.13;1.58;;;;;;;;;;7392408;19;20010;-77
2022/05/17 03:47:50;;;;;;;2.05;1.50;;;;;;;;;;7388021;19;20500;-80
2022/05/17 03:50:17;;;;;;;2.00;1.58;;;;;;;;;;7390128;19;20065;-80
2022/05/17 03:52:43;;;;;;;1.98;1.63;;;;;;;;;;7389150;19;20010;-78
2022/05/17 03:55:09;;;;;;;1.58;1.40;;;;;;;;;;7391771;19;19999;-79
2022/05/17 03:57:34;;;;;;;3.00;1.95;;;;;;;;;;7385995;19;20065;-79
2022/05/17 04:00:00;;;;;;;4.30;1.80;;;;;;;;;;7388753;19;20070;-79
2022/05/17 04:02:25;;;;;;;4.38;2.20;;;;;;;;;;7386439;19;20288;-79
2022/05/17 04:04:53;;;;;;;2.13;1.75;;;;;;;;;;7389177;19;20030;-79
2022/05/17 04:07:18;;;;;;;5.78;1.83;;;;;;;;;;7387180;19;20057;-79
2022/05/17 04:09:43;;;;;;;5.07;2.10;;;;;;;;;;7390142;19;20499;-79
2022/05/17 04:12:10;;;;;;;5.05;2.00;;;;;;;;;;7390111;19;20058;-81
2022/05/17 04:14:35;;;;;;;2.83;1.73;;;;;;;;;;7394979;19;20337;-78
2022/05/17 04:17:01;;;;;;;4.43;2.03;;;;;;;;;;7395041;19;20031;-78
2022/05/17 04:19:26;;;;;;;4.60;1.90;;;;;;;;;;7396490;19;20059;-79
2022/05/17 04:21:51;;;;;;;6.30;1.95;;;;;;;;;;7396074;19;20007;-79
2022/05/17 04:24:16;;;;;;;3.45;2.03;;;;;;;;;;7399317;19;20006;-79
2022/05/17 04:26:42;;;;;;;2.95;1.67;;;;;;;;;;7399493;19;20010;-80
2022/05/17 04:29:08;;;;;;;3.08;2.22;;;;;;;;;;7396840;19;19999;-79
2022/05/17 04:31:33;;;;;;;2.33;1.77;;;;;;;;;;7392391;19;20401;-79
2022/05/17 04:33:59;;;;;;;4.68;2.15;;;;;;;;;;7395207;19;20010;-78
2022/05/17 04:36:25;;;;;;;4.25;1.70;;;;;;;;;;7392648;19;20006;-79
2022/05/17 04:38:50;;;;;;;4.35;2.05;;;;;;;;;;7399693;19;20010;-79
2022/05/17 04:41:16;;;;;;;4.95;1.88;;;;;;;;;;7398150;19;20030;-79
2022/05/17 04:43:42;;;;;;;7.90;2.20;;;;;;;;;;7397484;19;20010;-79
2022/05/17 04:46:09;;;;;;;2.42;2.17;;;;;;;;;;7401034;19;20485;-81
2022/05/17 04:48:34;;;;;;;13.27;2.42;;;;;;;;;;7397211;19;20611;-80
2022/05/17 04:50:59;;;;;;;3.80;1.85;;;;;;;;;;7388747;19;20023;-80
2022/05/17 04:53:25;;;;;;;4.03;1.80;;;;;;;;;;7400881;19;20010;-79
2022/05/17 04:55:50;;;;;;;2.88;1.63;;;;;;;;;;7399629;19;20007;-79
2022/05/17 04:58:16;;;;;;;9.45;2.28;;;;;;;;;;7399850;19;20075;-79
2022/05/17 05:00:41;;;;;;;4.35;1.85;;;;;;;;;;7388796;19;20453;-79
2022/05/17 05:03:06;;;;;;;4.40;2.10;;;;;;;;;;7393231;19;20376;-81
2022/05/17 05:05:32;;;;;;;2.75;1.42;;;;;;;;;;7393682;19;20065;-79
2022/05/17 05:07:57;;;;;;;2.78;1.83;;;;;;;;;;7393468;19;20014;-79
2022/05/17 05:10:23;;;;;;;6.07;2.03;;;;;;;;;;7397697;19;20552;-80
2022/05/17 05:12:48;;;;;;;4.38;2.40;;;;;;;;;;7400042;19;20010;-79
2022/05/17 05:15:14;;;;;;;3.22;1.98;;;;;;;;;;7391529;19;20373;-80
2022/05/17 05:17:40;;;;;;;4.18;1.88;;;;;;;;;;7389310;19;20023;-79
2022/05/17 05:20:10;;;;;;;4.72;2.40;;;;;;;;;;7391332;19;20014;-79
2022/05/17 05:22:46;;;;;;;2.38;2.05;;;;;;;;;;7396382;19;20346;-79
2022/05/17 05:25:14;;;;;;;3.80;2.60;;;;;;;;;;7395470;19;20123;-79
2022/05/17 05:27:40;;;;;;;3.45;2.10;;;;;;;;;;7395782;19;20035;-80
2022/05/17 05:30:08;;;;;;;5.53;1.92;;;;;;;;;;7394668;19;20010;-79
2022/05/17 05:32:33;;;;;;;4.78;2.65;;;;;;;;;;7394140;19;20505;-79
2022/05/17 05:34:59;;;;;;;3.92;2.50;;;;;;;;;;7393739;19;20013;-80
2022/05/17 05:37:24;;;;;;;3.17;2.13;;;;;;;;;;7393450;19;20007;-79
2022/05/17 05:39:49;;;;;;;9.63;2.97;;;;;;;;;;7393625;19;20031;-80
2022/05/17 05:42:15;;;;;;;5.53;2.50;;;;;;;;;;7392111;19;20133;-80
2022/05/17 05:44:40;;;;;;;7.13;2.60;;;;;;;;;;7391521;19;20014;-79
2022/05/17 05:47:05;;;;;;;7.38;3.58;;;;;;;;;;7392576;19;20013;-79
2022/05/17 05:49:31;;;;;;;6.65;2.67;;;;;;;;;;7391701;19;20018;-79
2022/05/17 05:51:56;;;;;;;5.32;2.20;;;;;;;;;;7394377;19;20026;-78
2022/05/17 05:54:22;;;;;;;4.80;2.80;;;;;;;;;;7399219;19;20019;-79
2022/05/17 05:56:47;;;;;;;5.72;3.20;;;;;;;;;;7394717;19;20161;-78
2022/05/17 05:59:12;;;;;;;3.78;2.40;;;;;;;;;;7388693;19;20030;-78
2022/05/17 06:01:39;;;;;;;7.13;2.45;;;;;;;;;;7388747;19;21050;-78
2022/05/17 06:04:04;;;;;;;5.47;2.75;;;;;;;;;;7387415;19;20006;-79
2022/05/17 06:06:30;;;;;;;4.32;2.50;;;;;;;;;;7390742;19;20101;-78
2022/05/17 06:08:55;;;;;;;4.65;2.47;;;;;;;;;;7390754;19;20074;-79
2022/05/17 06:11:21;;;;;;;5.93;3.28;;;;;;;;;;7388642;19;20010;-78
2022/05/17 06:13:47;;;;;;;8.10;3.38;;;;;;;;;;7385890;19;20030;-78
2022/05/17 06:16:12;;;;;;;4.07;2.58;;;;;;;;;;7387938;19;20361;-78
2022/05/17 06:18:37;;;;;;;6.25;3.33;;;;;;;;;;7386135;19;20059;-78
2022/05/17 06:21:03;;;;;;;5.65;2.85;;;;;;;;;;7393157;19;20015;-78
2022/05/17 06:23:29;;;;;;;6.10;3.05;;;;;;;;;;7392247;19;20010;-78
2022/05/17 06:25:55;;;;;;;5.40;2.97;;;;;;;;;;7391062;19;20627;-78
2022/05/17 06:28:20;;;;;;;6.35;3.50;;;;;;;;;;7393730;19;20010;-78
2022/05/17 06:30:45;;;;;;;6.57;3.67;;;;;;;;;;7388554;19;20449;-78
2022/05/17 06:33:13;;;;;;;5.55;3.05;;;;;;;;;;7391604;19;20030;-78
2022/05/17 06:35:41;;;;;;;4.10;2.83;;;;;;;;;;7388859;19;20025;-80
2022/05/17 06:38:06;;;;;;;7.50;3.33;;;;;;;;;;7391076;19;20017;-79
2022/05/17 06:40:32;;;;;;;6.57;3.75;;;;;;;;;;7387919;19;20011;-80
2022/05/17 06:42:59;;;;;;;5.15;3.40;;;;;;;;;;7384143;19;20015;-78
2022/05/17 06:45:24;;;;;;;7.05;3.80;;;;;;;;;;7386040;19;20010;-78
2022/05/17 06:47:49;;;;;;;6.53;3.60;;;;;;;;;;7388978;19;20477;-77
2022/05/17 06:50:15;;;;;;;6.03;3.05;;;;;;;;;;7387680;19;20011;-77
2022/05/17 06:52:40;;;;;;;6.82;3.70;;;;;;;;;;7386988;19;20021;-78
2022/05/17 06:55:06;;;;;;;5.03;2.75;;;;;;;;;;7388183;19;20018;-77
2022/05/17 06:57:32;;;;;;;7.00;3.50;;;;;;;;;;7387391;19;20010;-78
2022/05/17 06:59:58;;;;;;;6.78;3.63;;;;;;;;;;7387102;19;20047;-78
2022/05/17 07:02:23;;;;;;;6.90;3.50;;;;;;;;;;7388271;19;20083;-78
2022/05/17 07:04:49;;;;;;;5.97;3.50;;;;;;;;;;7387410;19;20498;-78
2022/05/17 07:07:14;;;;;;;6.70;3.10;;;;;;;;;;7385574;19;20002;-77
2022/05/17 07:09:39;;;;;;;5.07;3.40;;;;;;;;;;7388083;19;20006;-78
2022/05/17 07:14:49;;;;;;;8.23;3.42;;;;;;;;;;7387913;19;20017;-78
2022/05/17 07:17:17;;;;;;;7.80;3.95;;;;;;;;;;7387041;19;20015;-78
2022/05/17 07:19:43;;;;;;;5.25;3.15;;;;;;;;;;7387529;19;20453;-80
2022/05/17 07:22:08;;;;;;;7.97;3.95;;;;;;;;;;7382851;19;20129;-78
2022/05/17 07:24:35;;;;;;;6.70;3.53;;;;;;;;;;7382357;19;20022;-78
2022/05/17 07:27:01;;;;;;;7.13;3.20;;;;;;;;;;7389306;19;20110;-78
2022/05/17 07:29:27;;;;;;;5.88;3.47;;;;;;;;;;7387624;19;20419;-78
2022/05/17 07:31:52;;;;;;;9.25;3.38;;;;;;;;;;7387391;19;20023;-79
2022/05/17 07:34:18;;;;;;;8.63;3.33;;;;;;;;;;7390309;19;20306;-79
2022/05/17 07:36:44;;;;;;;6.18;3.50;;;;;;;;;;7393867;19;20393;-78
2022/05/17 07:39:10;;;;;;;6.45;3.17;;;;;;;;;;7391541;19;20051;-78
2022/05/17 07:41:36;;;;;;;6.88;3.20;;;;;;;;;;7389295;19;20022;-78
2022/05/17 07:44:03;;;;;;;6.07;3.53;;;;;;;;;;7395853;19;20002;-79
2022/05/17 07:46:28;;;;;;;4.45;2.78;;;;;;;;;;7391025;19;20034;-79
2022/05/17 07:48:54;;;;;;;7.97;3.05;;;;;;;;;;7393829;19;20014;-79
2022/05/17 07:51:19;;;;;;;6.45;3.63;;;;;;;;;;7388075;19;20002;-78
2022/05/17 07:53:46;;;;;;;6.60;2.90;;;;;;;;;;7387956;19;20046;-79
2022/05/17 07:56:12;;;;;;;6.70;2.92;;;;;;;;;;7386898;19;20006;-77
2022/05/17 07:58:37;;;;;;;6.03;2.70;;;;;;;;;;7389289;19;20461;-76
2022/05/17 08:01:05;;;;;;;5.30;3.25;;;;;;;;;;7384447;19;20087;-77
2022/05/17 08:03:31;;;;;;;3.33;2.13;;;;;;;;;;7389741;19;20009;-77
2022/05/17 08:05:57;;;;;;;5.80;2.40;;;;;;;;;;7386007;19;20010;-77
2022/05/17 08:08:22;;;;;;;6.75;3.05;;;;;;;;;;7389259;19;20025;-75
2022/05/17 08:10:48;;;;;;;5.60;2.80;;;;;;;;;;7385125;19;20040;-76
2022/05/17 08:13:15;;;;;;;6.10;2.60;;;;;;;;;;7388585;19;20021;-76
2022/05/17 08:15:40;;;;;;;6.47;2.45;;;;;;;;;;7382590;19;20414;-77
2022/05/17 08:18:06;;;;;;;6.68;2.33;;;;;;;;;;7387738;19;20513;-77
2022/05/17 08:20:33;;;;;;;6.78;2.30;;;;;;;;;;7387413;19;20010;-77
2022/05/17 08:22:59;;;;;;;4.78;2.45;;;;;;;;;;7380103;19;20007;-77
2022/05/17 08:28:08;;;;;;;4.78;2.47;;;;;;;;;;7389425;19;20017;-78
2022/05/17 08:30:35;;;;;;;5.30;1.95;;;;;;;;;;7385346;19;20010;-78
2022/05/17 08:33:19;;;;;;;3.53;1.65;;;;;;;;;;7387382;19;20031;-78
2022/05/17 08:35:54;;;;;;;8.00;2.35;;;;;;;;;;7389517;19;20520;-78
2022/05/17 08:38:21;;;;;;;5.38;2.20;;;;;;;;;;7389728;19;20002;-78
2022/05/17 08:40:58;;;;;;;5.05;2.10;;;;;;;;;;7386581;19;20014;-78
2022/05/17 08:43:50;;;;;;;7.68;2.70;;;;;;;;;;7384899;19;20010;-78
2022/05/17 08:46:54;;;;;;;9.00;2.40;;;;;;;;;;7390372;19;20010;-78
2022/05/17 08:49:24;;;;;;;5.70;2.80;;;;;;;;;;7384316;19;20010;-77
2022/05/17 08:52:07;;;;;;;4.57;2.70;;;;;;;;;;7388093;19;20101;-77
2022/05/17 08:54:36;;;;;;;5.38;2.40;;;;;;;;;;7396732;19;20450;-78
2022/05/17 08:57:22;;;;;;;2.53;1.88;;;;;;;;;;7397307;19;20011;-78
2022/05/17 08:59:48;;;;;;;4.40;2.38;;;;;;;;;;7401502;19;20006;-78
2022/05/17 09:02:33;;;;;;;5.90;2.55;;;;;;;;;;7398412;19;20026;-78
2022/05/17 09:05:07;;;;;;;6.80;2.53;;;;;;;;;;7401743;19;20010;-79
2022/05/17 09:07:59;;;;;;;3.83;2.03;;;;;;;;;;7403891;19;20014;-79
2022/05/17 09:10:36;;;;;;;3.67;2.05;;;;;;;;;;7401194;19;20036;-79
2022/05/17 09:13:09;;;;;;;3.53;1.77;;;;;;;;;;7402253;19;20017;-77
2022/05/17 09:15:34;;;;;;;7.80;2.20;;;;;;;;;;7385501;19;20010;-77
2022/05/17 09:18:06;;;;;;;5.03;1.65;;;;;;;;;;7396923;19;20115;-78
2022/05/17 09:20:34;;;;;;;4.20;1.80;;;;;;;;;;7392842;19;20034;-78
2022/05/17 09:23:00;;;;;;;6.75;1.80;;;;;;;;;;7397776;19;20007;-78
2022/05/17 09:25:44;;;;;;;3.22;1.80;;;;;;;;;;7394957;19;20078;-78
2022/05/17 09:28:10;;;;;;;5.60;2.60;;;;;;;;;;7396740;19;20085;-78
2022/05/17 09:30:38;;;;;;;3.55;1.60;;;;;;;;;;7393947;19;20412;-78
2022/05/17 09:33:10;;;;;;;2.30;1.52;;;;;;;;;;7396928;19;20007;-78
2022/05/17 09:36:00;;;;;;;5.47;1.85;;;;;;;;;;7390204;19;20489;-77
2022/05/17 09:38:29;;;;;;;2.83;1.73;;;;;;;;;;7390518;19;20415;-79
2022/05/17 09:40:57;;;;;;;4.65;1.77;;;;;;;;;;7389526;19;20415;-76
2022/05/17 09:43:35;;;;;;;6.30;2.08;;;;;;;;;;7393403;19;20002;-77
2022/05/17 09:46:10;;;;;;;4.15;1.95;;;;;;;;;;7395410;19;20014;-78
2022/05/17 09:54:43;;;;;;;2.67;1.83;;;;;;;;;;7392279;19;20017;-79
2022/05/17 09:57:16;;;;;;;4.88;1.63;;;;;;;;;;7391127;19;20010;-80
2022/05/17 09:59:43;;;;;;;4.22;1.77;;;;;;;;;;7390059;19;20476;-80
2022/05/17 10:02:33;;;;;;;3.28;1.50;;;;;;;;;;7389886;19;20137;-76
2022/05/17 10:05:24;;;;;;;3.75;1.73;;;;;;;;;;7383726;19;20437;-81
2022/05/17 10:08:10;;;;;;;3.85;1.83;;;;;;;;;;7386170;19;20018;-77
2022/05/17 10:10:44;;;;;;;3.00;1.85;;;;;;;;;;7384765;19;20014;-81
2022/05/17 10:13:42;;;;;;;7.38;1.83;;;;;;;;;;7385706;19;20595;-84
2022/05/17 10:16:52;;;;;;;2.63;1.80;;;;;;;;;;7389154;19;20062;-77
2022/05/17 10:19:37;;;;;;;4.00;1.83;;;;;;;;;;7382831;19;20136;-78
2022/05/17 10:22:17;;;;;;;1.73;1.63;;;;;;;;;;7388145;19;20126;-78
2022/05/17 10:24:54;;;;;;;3.35;1.83;;;;;;;;;;7391946;19;20006;-79
2022/05/17 10:27:50;;;;;;;4.95;2.05;;;;;;;;;;7389891;19;20387;-77
2022/05/17 10:30:16;;;;;;;3.83;2.05;;;;;;;;;;7387394;19;20017;-78
2022/05/17 10:33:02;;;;;;;5.05;1.90;;;;;;;;;;7387942;19;20006;-76
2022/05/17 10:35:44;;;;;;;;;;;;;;;;;;7389337;19;20026;-77
2022/05/17 10:38:12;;;;;;;3.78;1.83;;;;;;;;;;7390330;19;19911;-77
2022/05/17 10:40:43;;;;;;;5.35;2.03;;;;;;;;;;7388539;19;20007;-76
2022/05/17 10:43:12;;;;;;;2.45;1.73;;;;;;;;;;7388505;19;20014;-77
2022/05/17 10:45:38;;;;;;;3.47;2.05;;;;;;;;;;7390897;19;20010;-77
2022/05/17 10:48:03;;;;;;;5.55;1.90;;;;;;;;;;7391238;19;20034;-77
2022/05/17 10:51:01;;;;;;;6.13;2.23;;;;;;;;;;7384739;19;20015;-77
2022/05/17 10:53:54;;;;;;;3.13;1.98;;;;;;;;;;7388506;19;20271;-79
2022/05/17 10:56:25;;;;;;;6.00;2.20;;;;;;;;;;7389217;19;20021;-78
2022/05/17 10:59:39;;;;;;;4.93;2.08;;;;;;;;;;7388499;19;20015;-78
2022/05/17 11:02:19;;;;;;;3.45;2.15;;;;;;;;;;7385812;19;21039;-78
2022/05/17 11:05:15;;;;;;;3.58;2.17;;;;;;;;;;7384801;19;20461;-77
2022/05/17 11:08:01;;;;;;;6.05;1.80;;;;;;;;;;7382459;19;20014;-77
2022/05/17 11:10:44;;;;;;;4.75;1.90;;;;;;;;;;7385411;19;20017;-77
2022/05/17 11:13:15;;;;;;;4.63;2.30;;;;;;;;;;7388398;19;20002;-77
2022/05/17 11:15:55;;;;;;;4.47;2.20;;;;;;;;;;7390751;19;20373;-77
2022/05/17 11:18:38;;;;;;;3.95;1.90;;;;;;;;;;7385918;19;20018;-77
2022/05/17 11:21:11;;;;;;;3.28;1.83;;;;;;;;;;7387485;19;20062;-78
2022/05/17 11:23:43;;;;;;;6.40;2.00;;;;;;;;;;7386815;19;20466;-78
2022/05/17 11:26:45;;;;;;;2.10;1.35;;;;;;;;;;7384129;19;20438;-78
2022/05/17 11:29:44;;;;;;;2.65;1.83;;;;;;;;;;7387761;19;20102;-77
2022/05/17 11:32:30;;;;;;;4.53;1.65;;;;;;;;;;7383787;19;20006;-78
2022/05/17 11:34:59;;;;;;;4.55;1.80;;;;;;;;;;7387890;19;20002;-79
2022/05/17 11:37:33;;;;;;;3.25;1.60;;;;;;;;;;7390324;19;20030;-78
2022/05/17 11:40:07;;;;;;;4.00;1.65;;;;;;;;;;7382211;19;20010;-78
2022/05/17 11:42:35;;;;;;;8.00;2.27;;;;;;;;;;7383472;19;20011;-78
2022/05/17 11:45:20;;;;;;;3.60;1.50;;;;;;;;;;7389540;19;20066;-80
2022/05/17 11:47:53;;;;;;;5.97;1.98;;;;;;;;;;7385931;19;20016;-76
2022/05/17 11:50:41;;;;;;;4.78;1.77;;;;;;;;;;7392880;19;20062;-80
2022/05/17 11:53:25;;;;;;;2.40;1.45;;;;;;;;;;7392802;19;20014;-79
2022/05/17 11:56:19;;;;;;;5.05;1.63;;;;;;;;;;7387579;19;20017;-77
2022/05/17 11:58:49;;;;;;;3.15;1.30;;;;;;;;;;7388561;19;20082;-78
2022/05/17 12:01:26;;;;;;;6.40;1.45;;;;;;;;;;7381715;19;20006;-76
2022/05/17 12:04:00;;;;;;;1.73;1.27;;;;;;;;;;7388664;19;20007;-78
2022/05/17 12:06:38;;;;;;;2.42;1.40;;;;;;;;;;7385531;19;20021;-78
2022/05/17 12:09:24;;;;;;;4.13;1.45;;;;;;;;;;7389185;19;20110;-77
2022/05/17 12:11:49;;;;;;;3.08;1.77;;;;;;;;;;7385728;19;20510;-78
2022/05/17 12:14:23;;;;;;;3.22;1.35;;;;;;;;;;7386586;19;20533;-77
2022/05/17 12:16:54;;;;;;;2.00;0.90;;;;;;;;;;7385242;19;20014;-76
2022/05/17 12:19:47;;;;;;;3.67;1.30;;;;;;;;;;7382744;19;20046;-78
2022/05/17 12:22:28;;;;;;;3.33;1.33;;;;;;;;;;7387137;19;20312;-77
2022/05/17 12:24:54;;;;;;;3.10;1.38;;;;;;;;;;7387353;19;20018;-78
2022/05/17 12:27:28;;;;;;;2.08;1.27;;;;;;;;;;7385394;19;19999;-77
2022/05/17 12:32:47;;;;;;;3.58;1.20;;;;;;;;;;7393796;19;20343;-78
2022/05/17 12:35:13;;;;;;;2.40;1.40;;;;;;;;;;7397449;19;19991;-77
2022/05/17 12:37:43;;;;;;;4.05;1.13;;;;;;;;;;7389295;19;20328;-77
2022/05/17 12:43:02;;;;;;;2.95;1.10;;;;;;;;;;7388594;19;20021;-79
2022/05/17 12:45:31;;;;;;;3.47;1.10;;;;;;;;;;7391814;19;20015;-77
2022/05/17 12:48:01;;;;;;;2.80;1.20;;;;;;;;;;7394830;19;20015;-78
2022/05/17 12:50:47;;;;;;;3.65;1.90;;;;;;;;;;7391336;19;20023;-77
2022/05/17 12:53:19;;;;;;;4.38;1.50;;;;;;;;;;7394006;19;20011;-77
2022/05/17 12:55:56;;;;;;;3.25;1.30;;;;;;;;;;7396216;19;20013;-77
2022/05/17 12:58:22;;;;;;;4.40;1.42;;;;;;;;;;7393369;19;20517;-78
2022/05/17 13:00:53;;;;;;;4.07;1.10;;;;;;;;;;7392385;19;20006;-79
2022/05/17 13:03:21;;;;;;;1.48;1.05;;;;;;;;;;7395565;19;20007;-79
2022/05/17 13:05:51;;;;;;;3.53;1.23;;;;;;;;;;7393696;19;20007;-77
2022/05/17 13:08:46;;;;;;;4.00;0.93;;;;;;;;;;7394485;19;20148;-78
2022/05/17 13:11:24;;;;;;;2.15;1.25;;;;;;;;;;7388589;19;20010;-80
2022/05/17 13:13:54;;;;;;;1.25;1.00;;;;;;;;;;7395963;19;20510;-79
2022/05/17 13:16:25;;;;;;;2.08;1.10;;;;;;;;;;7390761;19;20341;-80
2022/05/17 13:18:54;;;;;;;1.98;1.10;;;;;;;;;;7396258;19;20014;-78
2022/05/17 13:21:25;;;;;;;2.65;1.17;;;;;;;;;;7391273;19;20022;-77
2022/05/17 13:23:55;;;;;;;3.13;1.02;;;;;;;;;;7398336;19;20073;-79
2022/05/17 13:26:26;;;;;;;3.10;1.20;;;;;;;;;;7393186;19;20070;-77
2022/05/17 13:28:52;;;;;;;1.15;1.00;;;;;;;;;;7392328;19;20010;-80
2022/05/17 13:31:24;;;;;;;2.70;1.10;;;;;;;;;;7389152;19;20034;-79
2022/05/17 13:34:02;;;;;;;2.88;0.80;;;;;;;;;;7393255;19;20015;-80
2022/05/17 13:36:34;;;;;;;1.08;0.98;;;;;;;;;;7394076;19;20010;-79
2022/05/17 13:38:59;;;;;;;1.48;0.93;;;;;;;;;;7392713;19;20102;-78
2022/05/17 13:41:39;;;;;;;3.00;1.10;;;;;;;;;;7389158;19;20059;-78
2022/05/17 13:44:06;;;;;;;3.58;1.40;;;;;;;;;;7395518;19;20011;-80
2022/05/17 13:46:38;;;;;;;3.15;0.90;;;;;;;;;;7388786;19;20081;-80
2022/05/17 13:49:30;;;;;;;2.10;1.00;;;;;;;;;;7395293;19;20020;-78
2022/05/17 13:52:15;;;;;;;1.85;1.20;;;;;;;;;;7389211;19;20074;-79
2022/05/17 13:54:55;;;;;;;3.63;1.30;;;;;;;;;;7402817;19;20007;-79
2022/05/17 13:57:23;;;;;;;1.20;1.00;;;;;;;;;;7397538;19;20019;-78
2022/05/17 13:59:53;;;;;;;1.48;0.80;;;;;;;;;;7391258;19;20018;-79
2022/05/17 14:02:32;;;;;;;1.23;0.77;;;;;;;;;;7397382;19;20391;-80
2022/05/17 14:05:08;;;;;;;1.38;0.80;;;;;;;;;;7397133;19;20028;-79
2022/05/17 14:07:36;;;;;;;2.13;0.88;;;;;;;;;;7393434;19;20086;-79
2022/05/17 14:13:16;;;;;;;1.30;1.00;;;;;;;;;;7391305;19;20387;-80
2022/05/17 14:15:42;;;;;;;1.17;0.90;;;;;;;;;;7396158;19;20457;-78
2022/05/17 14:18:15;;;;;;;1.33;0.80;;;;;;;;;;7396306;19;20271;-78
2022/05/17 14:20:41;;;;;;;3.03;1.00;;;;;;;;;;7391701;19;20030;-78
2022/05/17 14:23:07;;;;;;;3.65;0.95;;;;;;;;;;7388731;19;20036;-79
2022/05/17 14:25:32;;;;;;;1.33;0.90;;;;;;;;;;7390566;19;20017;-78
2022/05/17 14:28:04;;;;;;;2.65;1.00;;;;;;;;;;7393523;19;20007;-78
2022/05/17 14:30:33;;;;;;;0.85;0.80;;;;;;;;;;7388811;19;20006;-78
2022/05/17 14:32:59;;;;;;;2.88;1.00;;;;;;;;;;7392794;19;20006;-80
2022/05/17 14:38:38;;;;;;;1.50;0.98;;;;;;;;;;7388290;19;20010;-80
2022/05/17 14:41:05;;;;;;;1.83;1.00;;;;;;;;;;7384493;19;20342;-80
2022/05/17 14:43:30;;;;;;;2.20;0.85;;;;;;;;;;7385698;19;20006;-80
2022/05/17 14:45:58;;;;;;;2.20;0.80;;;;;;;;;;7393225;19;20009;-79
2022/05/17 14:48:26;;;;;;;1.85;0.77;;;;;;;;;;7392023;19;20006;-79
2022/05/17 14:50:51;;;;;;;1.45;1.08;;;;;;;;;;7387977;19;20461;-79
2022/05/17 14:53:16;;;;;;;0.82;0.80;;;;;;;;;;7389114;19;19998;-79
2022/05/17 14:55:42;;;;;;;2.80;0.80;;;;;;;;;;7387726;19;21082;-79
2022/05/17 14:58:07;;;;;;;2.17;0.75;;;;;;;;;;7392243;19;20011;-79
2022/05/17 15:00:34;;;;;;;1.13;0.73;;;;;;;;;;7391549;19;20130;-79
2022/05/17 15:03:07;;;;;;;1.27;0.90;;;;;;;;;;7369795;19;20010;-79
2022/05/17 15:05:33;;;;;;;2.25;0.80;;;;;;;;;;7387805;19;20025;-81
2022/05/17 15:08:00;;;;;;;2.20;0.95;;;;;;;;;;7392515;19;20007;-79
2022/05/17 15:10:28;;;;;;;1.23;0.70;;;;;;;;;;7389121;19;20443;-80
2022/05/17 15:12:56;;;;;;;3.17;0.90;;;;;;;;;;7400689;19;20010;-80
2022/05/17 15:15:24;;;;;;;2.20;0.75;;;;;;;;;;7408166;19;20003;-82
2022/05/17 15:18:14;;;;;;;1.80;1.20;;;;;;;;;;7406508;19;20006;-80
2022/05/17 15:20:40;;;;;;;1.75;0.77;;;;;;;;;;7397414;19;20046;-81
2022/05/17 15:23:06;;;;;;;2.75;0.73;;;;;;;;;;7390281;19;20015;-80
2022/05/17 15:25:37;;;;;;;3.58;0.90;;;;;;;;;;7396562;19;20030;-82
2022/05/17 15:28:04;;;;;;;2.80;0.98;;;;;;;;;;7390045;19;20042;-81